createdAt,value
2023-02-11T00:01:25.412Z,15.60
2023-02-11T00:03:53.554Z,17.40
2023-02-11T00:06:21.530Z,15.88
2023-02-11T00:08:49.105Z,16.40
2023-02-11T00:11:19.828Z,16.35
2023-02-11T00:13:48.073Z,16.40
2023-02-11T00:16:19.312Z,17.25
2023-02-11T00:18:47.598Z,17.23
2023-02-11T00:21:18.114Z,16.30
2023-02-11T00:23:46.754Z,17.08
2023-02-11T00:26:23.304Z,17.15
2023-02-11T00:28:51.922Z,15.75
2023-02-11T00:31:22.341Z,16.02
2023-02-11T00:33:50.724Z,16.50
2023-02-11T00:36:21.562Z,13.93
2023-02-11T00:38:50.567Z,15.50
2023-02-11T00:41:19.014Z,15.52
2023-02-11T00:43:46.834Z,14.45
2023-02-11T00:46:16.128Z,13.87
2023-02-11T00:48:43.786Z,14.02
2023-02-11T00:51:12.019Z,15.00
2023-02-11T00:53:40.290Z,14.13
2023-02-11T00:56:08.075Z,13.43
2023-02-11T00:58:36.806Z,16.47
2023-02-11T01:01:05.357Z,16.42
2023-02-11T01:03:33.023Z,17.30
2023-02-11T01:06:00.826Z,15.95
2023-02-11T01:08:28.720Z,17.17
2023-02-11T01:11:02.084Z,17.30
2023-02-11T01:13:31.535Z,17.20
2023-02-11T01:15:59.094Z,17.35
2023-02-11T01:18:27.288Z,18.33
2023-02-11T01:20:55.483Z,18.52
2023-02-11T01:23:24.148Z,19.33
2023-02-11T01:25:52.140Z,18.35
2023-02-11T01:28:23.237Z,19.05
2023-02-11T01:30:51.438Z,18.98
2023-02-11T01:33:19.310Z,18.33
2023-02-11T01:35:47.210Z,17.80
2023-02-11T01:38:17.174Z,17.67
2023-02-11T01:41:07.232Z,18.45
2023-02-11T01:43:44.051Z,17.52
2023-02-11T01:46:35.225Z,17.70
2023-02-11T01:49:07.354Z,18.13
2023-02-11T01:51:41.874Z,18.40
2023-02-11T01:54:32.585Z,16.77
2023-02-11T01:57:20.999Z,17.58
2023-02-11T01:59:54.737Z,16.58
2023-02-11T02:02:26.633Z,16.53
2023-02-11T02:05:03.281Z,17.58
2023-02-11T02:07:39.593Z,16.92
2023-02-11T02:10:17.429Z,19.20
2023-02-11T02:12:44.970Z,18.58
2023-02-11T02:15:25.528Z,17.37
2023-02-11T02:18:22.082Z,18.25
2023-02-11T02:21:02.834Z,17.35
2023-02-11T02:23:51.832Z,16.70
2023-02-11T02:26:47.336Z,17.23
2023-02-11T02:29:39.486Z,16.60
2023-02-11T02:32:37.766Z,17.77
2023-02-11T02:35:37.705Z,16.33
2023-02-11T02:38:11.219Z,17.05
2023-02-11T02:40:51.940Z,17.75
2023-02-11T02:43:21.670Z,16.73
2023-02-11T02:45:49.807Z,19.08
2023-02-11T02:48:30.797Z,17.98
2023-02-11T02:51:13.685Z,16.67
2023-02-11T02:53:58.549Z,19.08
2023-02-11T02:56:41.249Z,18.63
2023-02-11T02:59:33.553Z,19.37
2023-02-11T03:02:29.685Z,18.58
2023-02-11T03:05:12.425Z,17.58
2023-02-11T03:08:01.516Z,17.17
2023-02-11T03:10:34.373Z,15.67
2023-02-11T03:13:04.701Z,18.55
2023-02-11T03:15:37.842Z,16.23
2023-02-11T03:18:09.511Z,18.23
2023-02-11T03:20:39.362Z,16.65
2023-02-11T03:23:19.175Z,17.20
2023-02-11T03:26:08.869Z,16.62
2023-02-11T03:29:16.691Z,16.25
2023-02-11T03:31:59.489Z,17.98
2023-02-11T03:34:50.169Z,17.17
2023-02-11T03:37:40.952Z,15.40
2023-02-11T03:40:13.909Z,16.20
2023-02-11T03:42:49.748Z,15.07
2023-02-11T03:45:21.839Z,16.95
2023-02-11T03:47:55.794Z,15.88
2023-02-11T03:50:24.978Z,15.97
2023-02-11T03:52:55.212Z,15.75
2023-02-11T03:55:26.003Z,16.12
2023-02-11T03:57:53.603Z,16.02
2023-02-11T04:00:21.144Z,13.60
2023-02-11T04:02:49.189Z,14.57
2023-02-11T04:05:16.881Z,15.30
2023-02-11T04:07:44.756Z,15.18
2023-02-11T04:10:13.075Z,14.75
2023-02-11T04:12:40.586Z,15.02
2023-02-11T04:15:08.757Z,13.23
2023-02-11T04:17:36.696Z,14.55
2023-02-11T04:20:04.552Z,13.82
2023-02-11T04:22:32.196Z,13.73
2023-02-11T04:25:00.043Z,14.87
2023-02-11T04:27:27.577Z,14.10
2023-02-11T04:29:55.106Z,14.48
2023-02-11T04:32:23.011Z,14.40
2023-02-11T04:34:50.685Z,14.48
2023-02-11T04:37:18.275Z,15.98
2023-02-11T04:39:46.106Z,14.33
2023-02-11T04:42:13.630Z,15.18
2023-02-11T04:44:41.190Z,14.18
2023-02-11T04:47:09.116Z,15.25
2023-02-11T04:49:36.637Z,14.68
2023-02-11T04:52:04.293Z,14.23
2023-02-11T04:54:32.054Z,15.95
2023-02-11T04:56:59.568Z,15.77
2023-02-11T04:59:27.290Z,15.15
2023-02-11T05:01:55.330Z,13.90
2023-02-11T05:04:23.122Z,14.10
2023-02-11T05:06:50.689Z,14.30
2023-02-11T05:09:18.718Z,13.25
2023-02-11T05:11:46.191Z,13.80
2023-02-11T05:14:13.741Z,14.30
2023-02-11T05:16:41.613Z,13.83
2023-02-11T05:19:09.189Z,14.65
2023-02-11T05:21:36.695Z,14.98
2023-02-11T05:24:04.908Z,15.38
2023-02-11T05:26:32.736Z,15.57
2023-02-11T05:29:00.256Z,17.77
2023-02-11T05:31:28.109Z,16.60
2023-02-11T05:33:55.644Z,15.90
2023-02-11T05:36:23.182Z,15.02
2023-02-11T05:38:51.120Z,16.30
2023-02-11T05:41:18.685Z,16.90
2023-02-11T05:43:49.957Z,16.80
2023-02-11T05:46:18.307Z,16.90
2023-02-11T05:48:45.873Z,16.52
2023-02-11T05:51:13.408Z,16.12
2023-02-11T05:53:41.227Z,15.77
2023-02-11T05:56:09.520Z,15.90
2023-02-11T05:58:38.712Z,15.88
2023-02-11T06:01:06.665Z,14.80
2023-02-11T06:03:34.533Z,14.52
2023-02-11T06:06:02.083Z,14.07
2023-02-11T06:08:29.604Z,14.82
2023-02-11T06:10:57.381Z,14.77
2023-02-11T06:13:24.917Z,15.32
2023-02-11T06:15:59.940Z,15.02
2023-02-11T06:18:28.104Z,15.37
2023-02-11T06:20:56.115Z,15.20
2023-02-11T06:23:23.728Z,16.20
2023-02-11T06:25:52.372Z,14.32
2023-02-11T06:28:20.254Z,15.95
2023-02-11T06:30:47.975Z,15.27
2023-02-11T06:33:15.857Z,16.08
2023-02-11T06:35:43.422Z,16.48
2023-02-11T06:38:10.902Z,16.30
2023-02-11T06:40:39.786Z,16.65
2023-02-11T06:43:07.366Z,16.70
2023-02-11T06:45:34.852Z,16.15
2023-02-11T06:48:02.664Z,16.58
2023-02-11T06:50:30.192Z,16.48
2023-02-11T06:52:59.915Z,16.58
2023-02-11T06:55:27.909Z,17.77
2023-02-11T06:57:55.448Z,17.37
2023-02-11T07:00:23.152Z,17.40
2023-02-11T07:02:51.001Z,16.95
2023-02-11T07:05:18.706Z,17.98
2023-02-11T07:07:46.367Z,20.10
2023-02-11T07:10:14.554Z,17.98
2023-02-11T07:12:42.099Z,18.45
2023-02-11T07:15:09.835Z,18.00
2023-02-11T07:17:37.650Z,19.37
2023-02-11T07:20:05.552Z,18.40
2023-02-11T07:22:34.712Z,20.45
2023-02-11T07:25:02.548Z,19.17
2023-02-11T07:27:30.146Z,19.37
2023-02-11T07:29:57.754Z,18.17
2023-02-11T07:32:25.596Z,17.90
2023-02-11T07:34:53.185Z,18.00
2023-02-11T07:37:20.768Z,17.77
2023-02-11T07:39:48.626Z,18.45
2023-02-11T07:42:16.148Z,18.10
2023-02-11T07:44:44.157Z,18.23
2023-02-11T07:47:11.937Z,17.73
2023-02-11T07:49:39.465Z,17.80
2023-02-11T07:52:06.971Z,18.90
2023-02-11T07:54:37.662Z,17.62
2023-02-11T07:57:05.185Z,19.07
2023-02-11T07:59:32.810Z,19.33
2023-02-11T08:02:00.750Z,19.77
2023-02-11T08:04:28.711Z,20.80
2023-02-11T08:06:59.092Z,21.15
2023-02-11T08:09:26.724Z,19.40
2023-02-11T08:11:54.609Z,21.12
2023-02-11T08:14:22.159Z,19.25
2023-02-11T08:16:49.769Z,18.70
2023-02-11T08:19:17.809Z,18.02
2023-02-11T08:21:46.017Z,17.60
2023-02-11T08:24:13.575Z,19.05
2023-02-11T08:26:41.854Z,18.77
2023-02-11T08:29:12.852Z,18.10
2023-02-11T08:31:43.588Z,17.12
2023-02-11T08:34:14.276Z,17.70
2023-02-11T08:36:42.680Z,18.58
2023-02-11T08:39:19.756Z,16.45
2023-02-11T08:41:53.985Z,16.90
2023-02-11T08:44:22.770Z,17.35
2023-02-11T08:46:51.438Z,19.57
2023-02-11T08:49:19.878Z,18.20
2023-02-11T08:51:47.655Z,18.15
2023-02-11T08:54:15.956Z,18.55
2023-02-11T08:56:43.916Z,17.20
2023-02-11T08:59:14.787Z,16.50
2023-02-11T09:01:44.339Z,15.23
2023-02-11T09:04:12.293Z,15.70
2023-02-11T09:06:40.191Z,15.40
2023-02-11T09:09:11.580Z,15.50
2023-02-11T09:11:40.771Z,14.73
2023-02-11T09:14:19.940Z,14.52
2023-02-11T09:16:48.448Z,14.80
2023-02-11T09:19:16.710Z,16.70
2023-02-11T09:21:44.300Z,18.27
2023-02-11T09:24:12.145Z,15.80
2023-02-11T09:26:41.799Z,17.05
2023-02-11T09:29:09.339Z,15.68
2023-02-11T09:31:36.983Z,17.12
2023-02-11T09:34:06.365Z,15.95
2023-02-11T09:36:37.680Z,16.53
2023-02-11T09:39:08.940Z,15.43
2023-02-11T09:41:42.445Z,15.25
2023-02-11T09:44:30.297Z,16.60
2023-02-11T09:47:07.579Z,18.45
2023-02-11T09:49:49.206Z,17.63
2023-02-11T09:52:44.818Z,15.63
2023-02-11T09:55:39.745Z,15.07
2023-02-11T09:58:17.123Z,14.13
2023-02-11T10:01:10.880Z,14.70
2023-02-11T10:04:14.471Z,14.80
2023-02-11T10:06:53.305Z,14.43
2023-02-11T10:09:39.654Z,14.68
2023-02-11T10:12:32.595Z,14.45
2023-02-11T10:15:15.073Z,14.90
2023-02-11T10:18:01.294Z,15.00
2023-02-11T10:20:37.516Z,15.90
2023-02-11T10:23:26.872Z,15.65
2023-02-11T10:25:56.767Z,15.57
2023-02-11T10:28:30.221Z,14.95
2023-02-11T10:31:02.164Z,15.60
2023-02-11T10:33:57.629Z,13.88
2023-02-11T10:36:31.452Z,13.77
2023-02-11T10:39:20.182Z,14.40
2023-02-11T10:41:51.257Z,14.18
2023-02-11T10:44:41.856Z,15.57
2023-02-11T10:47:25.367Z,14.40
2023-02-11T10:49:52.878Z,14.77
2023-02-11T10:52:26.951Z,15.27
2023-02-11T10:54:59.041Z,14.45
2023-02-11T10:58:00.805Z,15.90
2023-02-11T11:00:42.984Z,15.25
2023-02-11T11:03:23.801Z,13.98
2023-02-11T11:06:31.607Z,13.55
2023-02-11T11:08:59.690Z,15.30
2023-02-11T11:11:27.633Z,13.00
2023-02-11T11:14:00.463Z,11.90
2023-02-11T11:16:36.304Z,13.82
2023-02-11T11:19:06.529Z,11.20
2023-02-11T11:21:36.875Z,13.48
2023-02-11T11:24:04.796Z,9.60
2023-02-11T11:26:43.955Z,9.60
2023-02-11T11:29:22.548Z,10.60
2023-02-11T11:32:01.882Z,11.05
2023-02-11T11:34:40.699Z,10.60
2023-02-11T11:37:19.933Z,11.13
2023-02-11T11:40:09.395Z,11.38
2023-02-11T11:42:39.231Z,11.80
2023-02-11T11:45:10.226Z,11.45
2023-02-11T11:47:56.307Z,11.70
2023-02-11T11:50:44.384Z,12.77
2023-02-11T11:53:29.748Z,11.90
2023-02-11T11:56:34.634Z,11.25
2023-02-11T11:59:11.457Z,11.48
2023-02-11T12:01:39.314Z,11.95
2023-02-11T12:04:26.505Z,12.77
2023-02-11T12:07:19.069Z,13.00
2023-02-11T12:09:46.803Z,12.23
2023-02-11T12:12:14.274Z,14.13
2023-02-11T12:15:23.292Z,14.90
2023-02-11T12:18:03.249Z,11.67
2023-02-11T12:20:58.993Z,13.85
2023-02-11T12:23:54.334Z,12.35
2023-02-11T12:26:32.392Z,14.02
2023-02-11T12:29:16.463Z,12.80
2023-02-11T12:31:49.843Z,13.77
2023-02-11T12:34:23.427Z,15.80
2023-02-11T12:37:27.584Z,14.77
2023-02-11T12:40:09.212Z,15.55
2023-02-11T12:42:55.214Z,14.23
2023-02-11T12:46:00.376Z,11.97
2023-02-11T12:48:30.526Z,11.10
2023-02-11T12:51:14.950Z,10.93
2023-02-11T12:54:22.763Z,12.32
2023-02-11T12:56:53.629Z,11.15
2023-02-11T12:59:41.593Z,11.93
2023-02-11T13:02:23.446Z,12.93
2023-02-11T13:04:56.674Z,12.45
2023-02-11T13:07:40.216Z,12.20
2023-02-11T13:10:23.943Z,12.55
2023-02-11T13:13:13.147Z,11.23
2023-02-11T13:15:43.971Z,11.30
2023-02-11T13:18:22.767Z,12.15
2023-02-11T13:20:55.888Z,11.93
2023-02-11T13:23:26.696Z,11.38
2023-02-11T13:26:05.731Z,9.93
2023-02-11T13:28:42.726Z,10.50
2023-02-11T13:31:12.903Z,9.95
2023-02-11T13:33:45.891Z,10.10
2023-02-11T13:36:17.974Z,8.88
2023-02-11T13:38:56.162Z,9.27
2023-02-11T13:41:31.896Z,9.73
2023-02-11T13:44:06.530Z,9.60
2023-02-11T13:46:55.670Z,9.57
2023-02-11T13:49:37.540Z,8.65
2023-02-11T13:52:16.567Z,9.17
2023-02-11T13:54:49.554Z,10.10
2023-02-11T13:57:20.105Z,8.25
2023-02-11T13:59:51.520Z,8.27
2023-02-11T14:02:47.625Z,8.82
2023-02-11T14:05:37.208Z,9.13
2023-02-11T14:08:26.215Z,9.25
2023-02-11T14:10:56.901Z,10.23
2023-02-11T14:13:32.624Z,9.13
2023-02-11T14:16:36.957Z,9.55
2023-02-11T14:19:06.548Z,9.07
2023-02-11T14:21:37.635Z,9.63
2023-02-11T14:24:05.230Z,10.90
2023-02-11T14:26:50.019Z,10.05
2023-02-11T14:29:35.784Z,10.38
2023-02-11T14:32:24.325Z,8.93
2023-02-11T14:34:52.207Z,12.90
2023-02-11T14:37:19.627Z,10.45
2023-02-11T14:39:56.090Z,10.48
2023-02-11T14:42:27.215Z,10.05
2023-02-11T14:45:05.166Z,8.70
2023-02-11T14:47:45.320Z,9.02
2023-02-11T14:50:19.449Z,8.38
2023-02-11T14:52:47.581Z,9.00
2023-02-11T14:55:27.054Z,9.13
2023-02-11T14:58:16.657Z,9.40
2023-02-11T15:00:59.435Z,9.88
2023-02-11T15:03:37.756Z,9.90
2023-02-11T15:06:26.921Z,9.05
2023-02-11T15:09:17.800Z,9.27
2023-02-11T15:11:49.622Z,10.53
2023-02-11T15:14:27.337Z,10.27
2023-02-11T15:16:58.218Z,11.43
2023-02-11T15:19:48.922Z,11.70
2023-02-11T15:22:22.240Z,10.60
2023-02-11T15:25:10.365Z,11.10
2023-02-11T15:27:49.336Z,11.23
2023-02-11T15:30:23.279Z,6.07
2023-02-11T15:32:58.160Z,5.53
2023-02-11T15:35:28.893Z,5.55
2023-02-11T15:37:58.551Z,6.53
2023-02-11T15:40:32.459Z,11.23
2023-02-11T15:43:06.033Z,12.35
2023-02-11T15:45:41.753Z,13.07
2023-02-11T15:48:16.183Z,12.60
2023-02-11T15:51:00.639Z,12.03
2023-02-11T15:53:48.559Z,12.18
2023-02-11T15:56:35.359Z,11.75
2023-02-11T15:59:21.147Z,12.52
2023-02-11T16:01:49.764Z,14.10
2023-02-11T16:04:23.691Z,14.33
2023-02-11T16:06:53.114Z,13.45
2023-02-11T16:09:36.007Z,13.98
2023-02-11T16:12:21.602Z,12.93
2023-02-11T16:14:49.438Z,13.30
2023-02-11T16:17:29.169Z,13.30
2023-02-11T16:19:57.129Z,12.18
2023-02-11T16:22:28.116Z,12.73
2023-02-11T16:24:59.155Z,11.35
2023-02-11T16:27:39.704Z,11.45
2023-02-11T16:30:21.724Z,12.13
2023-02-11T16:32:49.627Z,12.10
2023-02-11T16:35:17.577Z,11.12
2023-02-11T16:37:45.074Z,11.00
2023-02-11T16:40:14.262Z,12.52
2023-02-11T16:42:41.760Z,11.57
2023-02-11T16:45:09.796Z,11.63
2023-02-11T16:47:41.057Z,12.77
2023-02-11T16:50:11.282Z,12.75
2023-02-11T16:52:39.235Z,12.90
2023-02-11T16:55:06.911Z,13.53
2023-02-11T16:57:34.529Z,12.85
2023-02-11T17:00:02.341Z,10.57
2023-02-11T17:02:34.761Z,12.20
2023-02-11T17:05:06.406Z,11.95
2023-02-11T17:07:34.103Z,12.43
2023-02-11T17:10:02.227Z,13.23
2023-02-11T17:12:29.788Z,12.98
2023-02-11T17:14:57.345Z,12.90
2023-02-11T17:17:25.170Z,12.55
2023-02-11T17:19:52.657Z,12.10
2023-02-11T17:22:20.239Z,12.20
2023-02-11T17:24:48.081Z,11.70
2023-02-11T17:27:15.604Z,14.32
2023-02-11T17:29:43.496Z,15.25
2023-02-11T17:32:11.357Z,17.50
2023-02-11T17:34:38.874Z,16.85
2023-02-11T17:37:09.680Z,18.60
2023-02-11T17:39:39.968Z,16.17
2023-02-11T17:42:08.786Z,15.95
2023-02-11T17:44:37.348Z,14.20
2023-02-11T17:47:04.992Z,14.82
2023-02-11T17:49:32.540Z,12.95
2023-02-11T17:52:00.361Z,13.65
2023-02-11T17:54:27.911Z,13.23
2023-02-11T17:56:58.195Z,14.07
2023-02-11T17:59:28.522Z,13.05
2023-02-11T18:01:56.009Z,12.40
2023-02-11T18:04:23.836Z,12.93
2023-02-11T18:06:53.633Z,12.48
2023-02-11T18:09:21.499Z,13.73
2023-02-11T18:11:50.665Z,14.40
2023-02-11T18:14:19.372Z,15.50
2023-02-11T18:16:51.368Z,18.45
2023-02-11T18:19:19.905Z,15.35
2023-02-11T18:21:50.353Z,14.03
2023-02-11T18:24:18.378Z,13.70
2023-02-11T18:26:46.150Z,13.85
2023-02-11T18:29:13.586Z,14.18
2023-02-11T18:31:41.301Z,13.52
2023-02-11T18:34:10.750Z,13.97
2023-02-11T18:36:38.449Z,12.50
2023-02-11T18:39:06.156Z,12.93
2023-02-11T18:41:34.136Z,13.95
2023-02-11T18:44:03.386Z,12.68
2023-02-11T18:46:31.484Z,13.17
2023-02-11T18:48:59.369Z,13.82
2023-02-11T18:51:27.108Z,12.70
2023-02-11T18:53:54.807Z,12.50
2023-02-11T18:56:26.064Z,12.60
2023-02-11T18:58:55.089Z,13.27
2023-02-11T19:01:27.323Z,13.27
2023-02-11T19:03:57.456Z,13.15
2023-02-11T19:06:28.070Z,13.30
2023-02-11T19:08:59.921Z,12.73
2023-02-11T19:11:48.861Z,12.20
2023-02-11T19:14:23.097Z,12.90
2023-02-11T19:16:53.628Z,12.07
2023-02-11T19:19:25.415Z,14.35
2023-02-11T19:21:53.556Z,16.15
2023-02-11T19:24:22.402Z,16.43
2023-02-11T19:26:52.130Z,15.35
2023-02-11T19:29:19.983Z,14.50
2023-02-11T19:31:47.848Z,14.00
2023-02-11T19:34:19.974Z,14.20
2023-02-11T19:36:49.226Z,14.30
2023-02-11T19:39:16.982Z,13.80
2023-02-11T19:41:44.641Z,14.50
2023-02-11T19:44:14.066Z,14.32
2023-02-11T19:46:41.899Z,14.35
2023-02-11T19:49:14.285Z,16.10
2023-02-11T19:51:42.066Z,17.23
2023-02-11T19:54:09.648Z,16.10
2023-02-11T19:56:38.049Z,16.35
2023-02-11T19:59:08.937Z,16.65
2023-02-11T20:01:37.253Z,15.17
2023-02-11T20:04:05.500Z,15.38
2023-02-11T20:06:34.451Z,14.15
2023-02-11T20:09:07.740Z,15.40
2023-02-11T20:11:36.579Z,15.40
2023-02-11T20:14:04.641Z,14.50
2023-02-11T20:16:46.886Z,14.93
2023-02-11T20:19:19.184Z,15.82
2023-02-11T20:21:48.882Z,14.05
2023-02-11T20:24:18.534Z,14.40
2023-02-11T20:26:48.535Z,15.50
2023-02-11T20:29:17.849Z,15.75
2023-02-11T20:31:46.215Z,15.68
2023-02-11T20:34:14.386Z,16.45
2023-02-11T20:36:42.067Z,15.90
2023-02-11T20:39:11.276Z,16.15
2023-02-11T20:41:41.765Z,16.40
2023-02-11T20:44:10.937Z,16.00
2023-02-11T20:46:41.465Z,16.08
2023-02-11T20:49:13.463Z,15.23
2023-02-11T20:51:42.351Z,14.87
2023-02-11T20:54:14.905Z,15.23
2023-02-11T20:56:44.462Z,13.68
2023-02-11T20:59:14.187Z,13.50
2023-02-11T21:01:44.689Z,13.23
2023-02-11T21:04:19.150Z,13.45
2023-02-11T21:06:52.174Z,15.35
2023-02-11T21:09:22.978Z,16.60
2023-02-11T21:11:52.004Z,16.05
2023-02-11T21:14:22.373Z,15.70
2023-02-11T21:16:50.448Z,16.15
2023-02-11T21:19:18.507Z,15.85
2023-02-11T21:21:46.467Z,16.42
2023-02-11T21:24:14.562Z,15.32
2023-02-11T21:26:42.543Z,13.93
2023-02-11T21:29:11.082Z,15.85
2023-02-11T21:31:39.616Z,15.63
2023-02-11T21:34:07.437Z,15.60
2023-02-11T21:36:35.368Z,16.73
2023-02-11T21:39:04.012Z,14.13
2023-02-11T21:41:32.076Z,14.38
2023-02-11T21:44:00.033Z,15.52
2023-02-11T21:46:27.854Z,14.85
2023-02-11T21:48:55.415Z,16.27
2023-02-11T21:51:25.232Z,16.13
2023-02-11T21:54:01.360Z,17.58
2023-02-11T21:56:31.491Z,18.33
2023-02-11T21:59:00.024Z,18.83
2023-02-11T22:01:33.213Z,17.40
2023-02-11T22:04:01.274Z,16.53
2023-02-11T22:06:31.987Z,17.00
2023-02-11T22:09:03.230Z,18.30
2023-02-11T22:11:31.414Z,17.40
2023-02-11T22:13:59.460Z,16.87
2023-02-11T22:16:28.146Z,16.33
2023-02-11T22:18:59.485Z,16.85
2023-02-11T22:21:27.111Z,17.42
2023-02-11T22:23:55.987Z,16.05
2023-02-11T22:26:25.733Z,14.57
2023-02-11T22:28:53.866Z,13.63
2023-02-11T22:31:27.574Z,12.75
2023-02-11T22:33:56.585Z,14.18
2023-02-11T22:36:32.680Z,12.15
2023-02-11T22:39:05.723Z,13.18
2023-02-11T22:41:33.567Z,11.80
2023-02-11T22:44:01.609Z,12.40
2023-02-11T22:46:29.181Z,12.48
2023-02-11T22:48:56.847Z,12.77
2023-02-11T22:51:27.926Z,13.48
2023-02-11T22:53:57.877Z,13.53
2023-02-11T22:56:26.921Z,13.85
2023-02-11T22:59:00.146Z,14.63
2023-02-11T23:01:29.408Z,14.13
2023-02-11T23:03:59.430Z,14.57
2023-02-11T23:06:27.051Z,11.93
2023-02-11T23:08:54.959Z,13.10
2023-02-11T23:11:28.377Z,12.35
2023-02-11T23:13:57.159Z,13.00
2023-02-11T23:16:27.995Z,12.37
2023-02-11T23:18:55.840Z,11.23
2023-02-11T23:21:26.488Z,11.50
2023-02-11T23:23:56.944Z,13.13
2023-02-11T23:26:25.713Z,11.90
2023-02-11T23:28:53.303Z,12.05
2023-02-11T23:31:23.354Z,12.17
2023-02-11T23:33:51.705Z,11.95
2023-02-11T23:36:21.068Z,12.90
2023-02-11T23:38:49.219Z,11.82
2023-02-11T23:41:17.206Z,12.52
2023-02-11T23:43:44.816Z,12.33
2023-02-11T23:46:12.359Z,11.70
2023-02-11T23:48:40.568Z,12.80
2023-02-11T23:51:09.860Z,11.82
2023-02-11T23:53:38.721Z,10.93
2023-02-11T23:56:11.333Z,11.97
2023-02-11T23:58:39.028Z,11.23
